sensor_id;sensor_type;location;lat;lon;timestamp;temperature;humidity
50969;DHT22;36982;51.474;7.228;2023-06-26T00:00:20;23.10;89.60
50969;DHT22;36982;51.474;7.228;2023-06-26T00:02:46;23.20;68.00
50969;DHT22;36982;51.474;7.228;2023-06-26T00:05:11;23.20;43.30
50969;DHT22;36982;51.474;7.228;2023-06-26T00:07:37;23.20;36.00
50969;DHT22;36982;51.474;7.228;2023-06-26T00:10:03;23.30;25.50
50969;DHT22;36982;51.474;7.228;2023-06-26T00:12:30;23.30;17.00
50969;DHT22;36982;51.474;7.228;2023-06-26T00:14:56;23.30;11.70
50969;DHT22;36982;51.474;7.228;2023-06-26T00:17:28;23.30;5.90
50969;DHT22;36982;51.474;7.228;2023-06-26T00:19:53;23.30;1.00
50969;DHT22;36982;51.474;7.228;2023-06-26T00:22:20;23.40;1.00
50969;DHT22;36982;51.474;7.228;2023-06-26T00:24:46;23.50;1.00
50969;DHT22;36982;51.474;7.228;2023-06-26T00:27:11;23.50;1.00
50969;DHT22;36982;51.474;7.228;2023-06-26T00:29:37;23.40;1.00
50969;DHT22;36982;51.474;7.228;2023-06-26T00:32:04;23.30;1.00
50969;DHT22;36982;51.474;7.228;2023-06-26T00:34:30;23.30;1.00
50969;DHT22;36982;51.474;7.228;2023-06-26T00:36:55;23.20;1.00
50969;DHT22;36982;51.474;7.228;2023-06-26T00:39:21;23.20;1.00
50969;DHT22;36982;51.474;7.228;2023-06-26T00:41:47;23.20;1.00
50969;DHT22;36982;51.474;7.228;2023-06-26T00:44:13;23.10;1.00
50969;DHT22;36982;51.474;7.228;2023-06-26T00:46:38;23.10;1.00
50969;DHT22;36982;51.474;7.228;2023-06-26T00:49:04;23.10;1.00
50969;DHT22;36982;51.474;7.228;2023-06-26T00:51:31;23.10;1.00
50969;DHT22;36982;51.474;7.228;2023-06-26T00:53:57;23.10;1.00
50969;DHT22;36982;51.474;7.228;2023-06-26T00:56:23;23.10;1.00
50969;DHT22;36982;51.474;7.228;2023-06-26T00:58:49;23.10;1.00
50969;DHT22;36982;51.474;7.228;2023-06-26T01:01:15;23.10;1.00
50969;DHT22;36982;51.474;7.228;2023-06-26T01:03:45;23.00;1.00
50969;DHT22;36982;51.474;7.228;2023-06-26T01:06:18;23.00;1.00
50969;DHT22;36982;51.474;7.228;2023-06-26T01:08:45;23.00;1.00
50969;DHT22;36982;51.474;7.228;2023-06-26T01:11:11;23.00;1.00
50969;DHT22;36982;51.474;7.228;2023-06-26T01:13:39;23.00;1.00
50969;DHT22;36982;51.474;7.228;2023-06-26T01:16:06;23.00;1.00
50969;DHT22;36982;51.474;7.228;2023-06-26T01:18:32;23.00;1.00
50969;DHT22;36982;51.474;7.228;2023-06-26T01:21:00;23.00;1.00
50969;DHT22;36982;51.474;7.228;2023-06-26T01:23:49;22.90;1.00
50969;DHT22;36982;51.474;7.228;2023-06-26T01:26:21;22.90;1.00
50969;DHT22;36982;51.474;7.228;2023-06-26T01:28:49;22.80;1.00
50969;DHT22;36982;51.474;7.228;2023-06-26T01:31:16;22.80;1.00
50969;DHT22;36982;51.474;7.228;2023-06-26T01:33:42;22.90;1.00
50969;DHT22;36982;51.474;7.228;2023-06-26T01:36:08;22.90;1.00
50969;DHT22;36982;51.474;7.228;2023-06-26T01:38:34;22.80;1.00
50969;DHT22;36982;51.474;7.228;2023-06-26T01:41:03;22.80;1.00
50969;DHT22;36982;51.474;7.228;2023-06-26T01:46:05;22.70;1.00
50969;DHT22;36982;51.474;7.228;2023-06-26T01:48:36;22.70;1.00
50969;DHT22;36982;51.474;7.228;2023-06-26T01:51:04;22.60;1.00
50969;DHT22;36982;51.474;7.228;2023-06-26T01:53:36;22.60;1.00
50969;DHT22;36982;51.474;7.228;2023-06-26T01:56:08;22.60;1.00
50969;DHT22;36982;51.474;7.228;2023-06-26T01:58:35;22.60;1.00
50969;DHT22;36982;51.474;7.228;2023-06-26T02:01:02;22.50;1.00
50969;DHT22;36982;51.474;7.228;2023-06-26T02:03:28;22.50;1.00
50969;DHT22;36982;51.474;7.228;2023-06-26T02:05:55;22.40;1.00
50969;DHT22;36982;51.474;7.228;2023-06-26T02:08:21;22.40;1.00
50969;DHT22;36982;51.474;7.228;2023-06-26T02:10:48;22.40;1.00
50969;DHT22;36982;51.474;7.228;2023-06-26T02:13:13;22.40;1.00
50969;DHT22;36982;51.474;7.228;2023-06-26T02:15:39;22.40;1.00
50969;DHT22;36982;51.474;7.228;2023-06-26T02:18:05;22.40;1.00
50969;DHT22;36982;51.474;7.228;2023-06-26T02:20:30;22.40;1.00
50969;DHT22;36982;51.474;7.228;2023-06-26T02:22:57;22.40;1.00
50969;DHT22;36982;51.474;7.228;2023-06-26T02:25:22;22.40;1.00
50969;DHT22;36982;51.474;7.228;2023-06-26T02:27:48;22.50;1.00
50969;DHT22;36982;51.474;7.228;2023-06-26T02:30:13;22.40;1.00
50969;DHT22;36982;51.474;7.228;2023-06-26T02:32:39;22.30;1.00
50969;DHT22;36982;51.474;7.228;2023-06-26T02:35:05;22.30;1.00
50969;DHT22;36982;51.474;7.228;2023-06-26T02:37:31;22.30;1.00
50969;DHT22;36982;51.474;7.228;2023-06-26T02:39:57;22.20;1.00
50969;DHT22;36982;51.474;7.228;2023-06-26T02:42:22;22.20;1.00
50969;DHT22;36982;51.474;7.228;2023-06-26T02:44:48;22.30;1.00
50969;DHT22;36982;51.474;7.228;2023-06-26T02:47:13;22.20;1.00
50969;DHT22;36982;51.474;7.228;2023-06-26T02:49:39;22.10;1.00
50969;DHT22;36982;51.474;7.228;2023-06-26T02:52:05;22.10;1.00
50969;DHT22;36982;51.474;7.228;2023-06-26T02:54:30;22.10;1.00
50969;DHT22;36982;51.474;7.228;2023-06-26T02:56:56;22.10;1.00
50969;DHT22;36982;51.474;7.228;2023-06-26T02:59:21;22.10;1.00
50969;DHT22;36982;51.474;7.228;2023-06-26T03:01:47;22.20;1.00
50969;DHT22;36982;51.474;7.228;2023-06-26T03:04:13;22.10;1.00
50969;DHT22;36982;51.474;7.228;2023-06-26T03:06:40;22.10;1.00
50969;DHT22;36982;51.474;7.228;2023-06-26T03:09:06;22.10;1.00
50969;DHT22;36982;51.474;7.228;2023-06-26T03:11:31;22.00;1.00
50969;DHT22;36982;51.474;7.228;2023-06-26T03:13:57;22.10;1.00
50969;DHT22;36982;51.474;7.228;2023-06-26T03:16:23;22.00;1.00
50969;DHT22;36982;51.474;7.228;2023-06-26T03:18:48;22.10;1.00
50969;DHT22;36982;51.474;7.228;2023-06-26T03:21:14;22.10;1.00
50969;DHT22;36982;51.474;7.228;2023-06-26T03:23:39;22.10;1.00
50969;DHT22;36982;51.474;7.228;2023-06-26T03:26:05;22.00;1.00
50969;DHT22;36982;51.474;7.228;2023-06-26T03:28:31;21.90;1.00
50969;DHT22;36982;51.474;7.228;2023-06-26T03:30:56;21.90;1.00
50969;DHT22;36982;51.474;7.228;2023-06-26T03:33:22;21.90;1.00
50969;DHT22;36982;51.474;7.228;2023-06-26T03:35:48;21.90;1.00
50969;DHT22;36982;51.474;7.228;2023-06-26T03:38:13;21.80;1.00
50969;DHT22;36982;51.474;7.228;2023-06-26T03:40:39;21.80;1.00
50969;DHT22;36982;51.474;7.228;2023-06-26T03:43:05;21.80;1.00
50969;DHT22;36982;51.474;7.228;2023-06-26T03:45:30;21.90;5.80
50969;DHT22;36982;51.474;7.228;2023-06-26T03:47:56;21.80;4.00
50969;DHT22;36982;51.474;7.228;2023-06-26T03:50:21;21.70;15.70
50969;DHT22;36982;51.474;7.228;2023-06-26T03:52:47;21.70;21.10
50969;DHT22;36982;51.474;7.228;2023-06-26T03:55:13;21.70;29.60
50969;DHT22;36982;51.474;7.228;2023-06-26T03:57:38;21.70;57.60
50969;DHT22;36982;51.474;7.228;2023-06-26T04:00:04;21.70;66.10
50969;DHT22;36982;51.474;7.228;2023-06-26T04:02:34;21.80;97.50
50969;DHT22;36982;51.474;7.228;2023-06-26T04:04:59;21.80;99.90
50969;DHT22;36982;51.474;7.228;2023-06-26T04:07:25;21.80;99.90
50969;DHT22;36982;51.474;7.228;2023-06-26T04:09:51;21.90;99.90
50969;DHT22;36982;51.474;7.228;2023-06-26T04:12:17;21.90;99.90
50969;DHT22;36982;51.474;7.228;2023-06-26T04:14:42;21.90;99.90
50969;DHT22;36982;51.474;7.228;2023-06-26T04:17:08;22.00;99.90
50969;DHT22;36982;51.474;7.228;2023-06-26T04:19:34;22.00;99.90
50969;DHT22;36982;51.474;7.228;2023-06-26T04:22:01;22.10;99.90
50969;DHT22;36982;51.474;7.228;2023-06-26T04:24:27;22.10;99.90
50969;DHT22;36982;51.474;7.228;2023-06-26T04:26:52;22.10;99.90
50969;DHT22;36982;51.474;7.228;2023-06-26T04:29:18;22.10;99.90
50969;DHT22;36982;51.474;7.228;2023-06-26T04:31:43;22.10;99.90
50969;DHT22;36982;51.474;7.228;2023-06-26T04:34:13;22.10;1.00
50969;DHT22;36982;51.474;7.228;2023-06-26T04:36:38;22.10;1.00
50969;DHT22;36982;51.474;7.228;2023-06-26T04:39:05;22.00;97.20
50969;DHT22;36982;51.474;7.228;2023-06-26T04:41:31;22.00;99.90
50969;DHT22;36982;51.474;7.228;2023-06-26T04:43:57;22.00;99.90
50969;DHT22;36982;51.474;7.228;2023-06-26T04:46:22;21.90;99.90
50969;DHT22;36982;51.474;7.228;2023-06-26T04:48:48;21.90;99.90
50969;DHT22;36982;51.474;7.228;2023-06-26T04:51:14;22.00;1.00
50969;DHT22;36982;51.474;7.228;2023-06-26T04:53:39;22.00;99.90
50969;DHT22;36982;51.474;7.228;2023-06-26T04:56:05;22.10;99.90
50969;DHT22;36982;51.474;7.228;2023-06-26T04:58:31;22.20;99.90
50969;DHT22;36982;51.474;7.228;2023-06-26T05:00:56;22.20;99.90
50969;DHT22;36982;51.474;7.228;2023-06-26T05:03:22;22.20;99.90
50969;DHT22;36982;51.474;7.228;2023-06-26T05:05:48;22.40;99.90
50969;DHT22;36982;51.474;7.228;2023-06-26T05:10:44;22.70;27.80
50969;DHT22;36982;51.474;7.228;2023-06-26T05:13:10;23.00;1.00
50969;DHT22;36982;51.474;7.228;2023-06-26T05:15:35;23.30;1.00
50969;DHT22;36982;51.474;7.228;2023-06-26T05:18:01;23.70;99.90
50969;DHT22;36982;51.474;7.228;2023-06-26T05:20:27;24.10;99.90
50969;DHT22;36982;51.474;7.228;2023-06-26T05:22:52;24.20;99.90
50969;DHT22;36982;51.474;7.228;2023-06-26T05:25:19;24.20;99.90
50969;DHT22;36982;51.474;7.228;2023-06-26T05:27:48;24.20;99.90
50969;DHT22;36982;51.474;7.228;2023-06-26T05:30:14;23.80;99.90
50969;DHT22;36982;51.474;7.228;2023-06-26T05:32:40;23.50;99.90
50969;DHT22;36982;51.474;7.228;2023-06-26T05:35:06;23.40;99.90
50969;DHT22;36982;51.474;7.228;2023-06-26T05:37:33;23.30;99.90
50969;DHT22;36982;51.474;7.228;2023-06-26T05:40:00;23.70;99.90
50969;DHT22;36982;51.474;7.228;2023-06-26T05:42:41;24.20;99.90
50969;DHT22;36982;51.474;7.228;2023-06-26T05:45:06;24.70;99.90
50969;DHT22;36982;51.474;7.228;2023-06-26T05:47:32;25.00;99.90
50969;DHT22;36982;51.474;7.228;2023-06-26T05:49:58;25.30;99.90
50969;DHT22;36982;51.474;7.228;2023-06-26T05:52:24;25.60;99.90
50969;DHT22;36982;51.474;7.228;2023-06-26T05:54:50;25.80;99.90
50969;DHT22;36982;51.474;7.228;2023-06-26T05:57:16;26.00;99.90
50969;DHT22;36982;51.474;7.228;2023-06-26T05:59:43;26.10;99.90
50969;DHT22;36982;51.474;7.228;2023-06-26T06:02:09;26.00;99.90
50969;DHT22;36982;51.474;7.228;2023-06-26T06:04:34;25.80;99.90
50969;DHT22;36982;51.474;7.228;2023-06-26T06:07:02;25.40;99.90
50969;DHT22;36982;51.474;7.228;2023-06-26T06:09:28;25.40;99.90
50969;DHT22;36982;51.474;7.228;2023-06-26T06:11:54;24.80;99.90
50969;DHT22;36982;51.474;7.228;2023-06-26T06:14:19;24.20;99.90
50969;DHT22;36982;51.474;7.228;2023-06-26T06:16:45;23.70;99.90
50969;DHT22;36982;51.474;7.228;2023-06-26T06:19:10;23.90;99.90
50969;DHT22;36982;51.474;7.228;2023-06-26T06:21:39;24.00;99.90
50969;DHT22;36982;51.474;7.228;2023-06-26T06:24:36;24.30;99.90
50969;DHT22;36982;51.474;7.228;2023-06-26T06:27:01;24.70;99.90
50969;DHT22;36982;51.474;7.228;2023-06-26T06:29:27;24.70;99.90
50969;DHT22;36982;51.474;7.228;2023-06-26T06:31:53;24.70;99.90
50969;DHT22;36982;51.474;7.228;2023-06-26T06:34:19;24.80;99.90
50969;DHT22;36982;51.474;7.228;2023-06-26T06:36:48;24.70;99.90
50969;DHT22;36982;51.474;7.228;2023-06-26T06:39:15;25.10;99.90
50969;DHT22;36982;51.474;7.228;2023-06-26T06:41:41;25.40;99.90
50969;DHT22;36982;51.474;7.228;2023-06-26T06:44:06;25.50;99.90
50969;DHT22;36982;51.474;7.228;2023-06-26T06:46:41;25.30;99.90
50969;DHT22;36982;51.474;7.228;2023-06-26T06:49:08;25.40;99.90
50969;DHT22;36982;51.474;7.228;2023-06-26T06:51:33;25.30;99.90
50969;DHT22;36982;51.474;7.228;2023-06-26T06:53:59;25.50;99.90
50969;DHT22;36982;51.474;7.228;2023-06-26T06:56:25;25.40;99.90
50969;DHT22;36982;51.474;7.228;2023-06-26T06:58:50;25.20;99.90
50969;DHT22;36982;51.474;7.228;2023-06-26T07:01:16;24.90;99.90
50969;DHT22;36982;51.474;7.228;2023-06-26T07:03:42;24.30;99.90
50969;DHT22;36982;51.474;7.228;2023-06-26T07:06:07;23.80;99.90
50969;DHT22;36982;51.474;7.228;2023-06-26T07:08:33;23.60;99.90
50969;DHT22;36982;51.474;7.228;2023-06-26T07:10:59;23.60;99.90
50969;DHT22;36982;51.474;7.228;2023-06-26T07:13:25;23.40;1.00
50969;DHT22;36982;51.474;7.228;2023-06-26T07:15:51;23.40;1.00
50969;DHT22;36982;51.474;7.228;2023-06-26T07:18:17;23.40;62.50
50969;DHT22;36982;51.474;7.228;2023-06-26T07:20:43;23.50;94.30
50969;DHT22;36982;51.474;7.228;2023-06-26T07:23:09;23.30;99.90
50969;DHT22;36982;51.474;7.228;2023-06-26T07:25:35;23.30;99.90
50969;DHT22;36982;51.474;7.228;2023-06-26T07:28:01;23.40;99.90
50969;DHT22;36982;51.474;7.228;2023-06-26T07:30:27;23.40;99.90
50969;DHT22;36982;51.474;7.228;2023-06-26T07:32:52;23.50;99.90
50969;DHT22;36982;51.474;7.228;2023-06-26T07:35:18;23.60;99.90
50969;DHT22;36982;51.474;7.228;2023-06-26T07:37:44;23.70;23.10
50969;DHT22;36982;51.474;7.228;2023-06-26T07:40:10;23.80;64.70
50969;DHT22;36982;51.474;7.228;2023-06-26T07:42:36;23.70;99.90
50969;DHT22;36982;51.474;7.228;2023-06-26T07:45:02;23.70;99.90
50969;DHT22;36982;51.474;7.228;2023-06-26T07:47:30;23.50;99.90
50969;DHT22;36982;51.474;7.228;2023-06-26T07:49:56;23.60;99.90
50969;DHT22;36982;51.474;7.228;2023-06-26T07:52:21;23.70;91.80
50969;DHT22;36982;51.474;7.228;2023-06-26T07:54:47;23.70;99.90
50969;DHT22;36982;51.474;7.228;2023-06-26T07:57:12;23.70;99.90
50969;DHT22;36982;51.474;7.228;2023-06-26T07:59:38;23.70;77.60
50969;DHT22;36982;51.474;7.228;2023-06-26T08:02:09;23.80;67.10
50969;DHT22;36982;51.474;7.228;2023-06-26T08:04:35;23.90;97.50
50969;DHT22;36982;51.474;7.228;2023-06-26T08:07:01;24.00;87.00
50969;DHT22;36982;51.474;7.228;2023-06-26T08:09:28;24.20;96.80
50969;DHT22;36982;51.474;7.228;2023-06-26T08:11:54;24.10;99.20
50969;DHT22;36982;51.474;7.228;2023-06-26T08:14:20;24.10;67.50
50969;DHT22;36982;51.474;7.228;2023-06-26T08:16:46;23.90;55.20
50969;DHT22;36982;51.474;7.228;2023-06-26T08:19:13;23.70;88.40
50969;DHT22;36982;51.474;7.228;2023-06-26T08:21:45;23.60;64.60
50969;DHT22;36982;51.474;7.228;2023-06-26T08:24:16;23.50;99.90
50969;DHT22;36982;51.474;7.228;2023-06-26T08:26:45;23.50;99.90
50969;DHT22;36982;51.474;7.228;2023-06-26T08:29:11;23.70;99.90
50969;DHT22;36982;51.474;7.228;2023-06-26T08:31:38;23.60;99.90
50969;DHT22;36982;51.474;7.228;2023-06-26T08:34:04;23.70;99.90
50969;DHT22;36982;51.474;7.228;2023-06-26T08:36:30;23.80;99.90
50969;DHT22;36982;51.474;7.228;2023-06-26T08:38:56;24.00;99.90
50969;DHT22;36982;51.474;7.228;2023-06-26T08:41:22;24.10;99.90
50969;DHT22;36982;51.474;7.228;2023-06-26T08:43:48;24.00;99.90
50969;DHT22;36982;51.474;7.228;2023-06-26T08:46:15;24.00;99.90
50969;DHT22;36982;51.474;7.228;2023-06-26T08:48:45;23.90;99.90
50969;DHT22;36982;51.474;7.228;2023-06-26T08:51:16;24.00;99.90
50969;DHT22;36982;51.474;7.228;2023-06-26T08:56:11;24.20;98.00
50969;DHT22;36982;51.474;7.228;2023-06-26T08:58:40;24.30;99.90
50969;DHT22;36982;51.474;7.228;2023-06-26T09:01:06;24.40;99.90
50969;DHT22;36982;51.474;7.228;2023-06-26T09:03:32;24.40;56.40
50969;DHT22;36982;51.474;7.228;2023-06-26T09:05:58;24.30;48.80
50969;DHT22;36982;51.474;7.228;2023-06-26T09:08:24;24.10;1.00
50969;DHT22;36982;51.474;7.228;2023-06-26T09:10:49;24.00;1.00
50969;DHT22;36982;51.474;7.228;2023-06-26T09:13:16;23.90;7.80
50969;DHT22;36982;51.474;7.228;2023-06-26T09:15:43;23.90;1.00
50969;DHT22;36982;51.474;7.228;2023-06-26T09:18:09;23.90;1.00
50969;DHT22;36982;51.474;7.228;2023-06-26T09:20:34;24.00;1.00
50969;DHT22;36982;51.474;7.228;2023-06-26T09:23:00;24.10;1.00
50969;DHT22;36982;51.474;7.228;2023-06-26T09:25:27;24.20;1.00
50969;DHT22;36982;51.474;7.228;2023-06-26T09:27:53;23.90;1.00
50969;DHT22;36982;51.474;7.228;2023-06-26T09:30:19;23.90;1.00
50969;DHT22;36982;51.474;7.228;2023-06-26T09:32:45;23.90;1.00
50969;DHT22;36982;51.474;7.228;2023-06-26T09:35:11;24.00;1.00
50969;DHT22;36982;51.474;7.228;2023-06-26T09:37:37;24.00;1.00
50969;DHT22;36982;51.474;7.228;2023-06-26T09:40:03;24.30;1.00
50969;DHT22;36982;51.474;7.228;2023-06-26T09:42:30;24.60;1.00
50969;DHT22;36982;51.474;7.228;2023-06-26T09:44:56;24.70;99.90
50969;DHT22;36982;51.474;7.228;2023-06-26T09:47:22;24.70;99.90
50969;DHT22;36982;51.474;7.228;2023-06-26T09:49:48;24.70;99.90
50969;DHT22;36982;51.474;7.228;2023-06-26T09:52:18;24.50;99.90
50969;DHT22;36982;51.474;7.228;2023-06-26T09:54:45;24.30;99.90
50969;DHT22;36982;51.474;7.228;2023-06-26T09:57:17;24.20;99.90
50969;DHT22;36982;51.474;7.228;2023-06-26T09:59:44;24.20;99.90
50969;DHT22;36982;51.474;7.228;2023-06-26T10:02:11;24.10;99.90
50969;DHT22;36982;51.474;7.228;2023-06-26T10:04:37;24.00;99.90
50969;DHT22;36982;51.474;7.228;2023-06-26T10:07:10;24.10;99.90
50969;DHT22;36982;51.474;7.228;2023-06-26T10:09:40;24.30;99.90
50969;DHT22;36982;51.474;7.228;2023-06-26T10:12:18;24.40;99.90
50969;DHT22;36982;51.474;7.228;2023-06-26T10:14:45;24.60;99.90
50969;DHT22;36982;51.474;7.228;2023-06-26T10:17:15;24.60;99.90
50969;DHT22;36982;51.474;7.228;2023-06-26T10:19:44;24.70;99.90
50969;DHT22;36982;51.474;7.228;2023-06-26T10:22:17;24.60;99.90
50969;DHT22;36982;51.474;7.228;2023-06-26T10:24:44;24.40;99.90
50969;DHT22;36982;51.474;7.228;2023-06-26T10:27:14;24.40;99.90
50969;DHT22;36982;51.474;7.228;2023-06-26T10:29:40;24.30;99.90
50969;DHT22;36982;51.474;7.228;2023-06-26T10:32:10;24.50;99.90
50969;DHT22;36982;51.474;7.228;2023-06-26T10:34:37;24.60;94.50
50969;DHT22;36982;51.474;7.228;2023-06-26T10:37:03;24.70;99.00
50969;DHT22;36982;51.474;7.228;2023-06-26T10:39:49;24.80;29.90
50969;DHT22;36982;51.474;7.228;2023-06-26T10:42:16;24.50;1.00
50969;DHT22;36982;51.474;7.228;2023-06-26T10:44:43;24.30;1.00
50969;DHT22;36982;51.474;7.228;2023-06-26T10:47:10;24.10;1.00
50969;DHT22;36982;51.474;7.228;2023-06-26T10:49:37;24.00;1.00
50969;DHT22;36982;51.474;7.228;2023-06-26T10:52:05;24.00;1.00
50969;DHT22;36982;51.474;7.228;2023-06-26T10:54:31;23.90;1.00
50969;DHT22;36982;51.474;7.228;2023-06-26T10:56:58;23.80;1.00
50969;DHT22;36982;51.474;7.228;2023-06-26T10:59:25;23.70;1.00
50969;DHT22;36982;51.474;7.228;2023-06-26T11:02:02;23.80;1.00
50969;DHT22;36982;51.474;7.228;2023-06-26T11:04:46;24.00;1.00
50969;DHT22;36982;51.474;7.228;2023-06-26T11:07:23;24.20;1.00
50969;DHT22;36982;51.474;7.228;2023-06-26T11:10:07;24.30;1.00
50969;DHT22;36982;51.474;7.228;2023-06-26T11:12:37;24.30;99.90
50969;DHT22;36982;51.474;7.228;2023-06-26T11:15:14;24.50;1.00
50969;DHT22;36982;51.474;7.228;2023-06-26T11:17:41;24.60;99.90
50969;DHT22;36982;51.474;7.228;2023-06-26T11:20:09;24.60;99.90
50969;DHT22;36982;51.474;7.228;2023-06-26T11:22:39;24.50;1.00
50969;DHT22;36982;51.474;7.228;2023-06-26T11:25:06;24.30;1.00
50969;DHT22;36982;51.474;7.228;2023-06-26T11:30:04;23.90;1.00
50969;DHT22;36982;51.474;7.228;2023-06-26T11:32:31;23.80;1.00
50969;DHT22;36982;51.474;7.228;2023-06-26T11:34:58;23.70;1.00
50969;DHT22;36982;51.474;7.228;2023-06-26T11:37:25;23.50;1.00
50969;DHT22;36982;51.474;7.228;2023-06-26T11:39:51;23.50;1.00
50969;DHT22;36982;51.474;7.228;2023-06-26T11:42:20;23.50;1.00
50969;DHT22;36982;51.474;7.228;2023-06-26T11:44:47;23.50;1.00
50969;DHT22;36982;51.474;7.228;2023-06-26T11:47:17;23.70;1.00
50969;DHT22;36982;51.474;7.228;2023-06-26T11:49:47;23.70;1.00
50969;DHT22;36982;51.474;7.228;2023-06-26T11:52:14;23.70;99.90
50969;DHT22;36982;51.474;7.228;2023-06-26T11:54:50;23.60;99.90
50969;DHT22;36982;51.474;7.228;2023-06-26T11:57:16;23.60;99.90
50969;DHT22;36982;51.474;7.228;2023-06-26T11:59:44;23.70;99.90
50969;DHT22;36982;51.474;7.228;2023-06-26T12:02:13;23.70;99.90
50969;DHT22;36982;51.474;7.228;2023-06-26T12:04:45;23.80;99.90
50969;DHT22;36982;51.474;7.228;2023-06-26T12:07:12;23.80;99.90
50969;DHT22;36982;51.474;7.228;2023-06-26T12:09:43;23.80;99.90
50969;DHT22;36982;51.474;7.228;2023-06-26T12:12:15;23.90;99.90
50969;DHT22;36982;51.474;7.228;2023-06-26T12:14:41;23.90;99.90
50969;DHT22;36982;51.474;7.228;2023-06-26T12:17:12;23.70;99.90
50969;DHT22;36982;51.474;7.228;2023-06-26T12:19:42;23.70;99.90
50969;DHT22;36982;51.474;7.228;2023-06-26T12:22:08;23.80;99.90
50969;DHT22;36982;51.474;7.228;2023-06-26T12:24:38;23.90;99.90
50969;DHT22;36982;51.474;7.228;2023-06-26T12:27:08;23.90;99.90
50969;DHT22;36982;51.474;7.228;2023-06-26T12:29:35;23.90;99.90
50969;DHT22;36982;51.474;7.228;2023-06-26T12:32:01;24.00;99.90
50969;DHT22;36982;51.474;7.228;2023-06-26T12:34:37;24.10;99.90
50969;DHT22;36982;51.474;7.228;2023-06-26T12:37:10;24.10;99.90
50969;DHT22;36982;51.474;7.228;2023-06-26T12:39:50;24.10;99.90
50969;DHT22;36982;51.474;7.228;2023-06-26T12:42:24;24.10;99.90
50969;DHT22;36982;51.474;7.228;2023-06-26T12:44:51;24.20;99.90
50969;DHT22;36982;51.474;7.228;2023-06-26T12:47:19;24.20;99.90
50969;DHT22;36982;51.474;7.228;2023-06-26T12:49:49;24.30;99.90
50969;DHT22;36982;51.474;7.228;2023-06-26T12:52:15;24.40;99.90
50969;DHT22;36982;51.474;7.228;2023-06-26T12:54:43;24.40;99.90
50969;DHT22;36982;51.474;7.228;2023-06-26T12:57:09;24.30;99.90
50969;DHT22;36982;51.474;7.228;2023-06-26T12:59:36;24.30;95.30
50969;DHT22;36982;51.474;7.228;2023-06-26T13:02:03;24.10;84.20
50969;DHT22;36982;51.474;7.228;2023-06-26T13:04:29;24.10;74.50
50969;DHT22;36982;51.474;7.228;2023-06-26T13:06:55;24.10;74.60
50969;DHT22;36982;51.474;7.228;2023-06-26T13:09:24;24.00;70.30
50969;DHT22;36982;51.474;7.228;2023-06-26T13:11:51;23.90;69.80
50969;DHT22;36982;51.474;7.228;2023-06-26T13:14:17;23.90;73.80
50969;DHT22;36982;51.474;7.228;2023-06-26T13:16:43;24.00;83.60
50969;DHT22;36982;51.474;7.228;2023-06-26T13:19:08;23.90;79.90
50969;DHT22;36982;51.474;7.228;2023-06-26T13:21:34;23.90;65.90
50969;DHT22;36982;51.474;7.228;2023-06-26T13:24:10;23.90;65.90
50969;DHT22;36982;51.474;7.228;2023-06-26T13:26:35;23.80;50.70
50969;DHT22;36982;51.474;7.228;2023-06-26T13:29:01;23.80;42.60
50969;DHT22;36982;51.474;7.228;2023-06-26T13:31:27;23.60;40.30
50969;DHT22;36982;51.474;7.228;2023-06-26T13:33:53;23.70;44.70
50969;DHT22;36982;51.474;7.228;2023-06-26T13:36:19;23.60;30.20
50969;DHT22;36982;51.474;7.228;2023-06-26T13:38:45;23.50;21.70
50969;DHT22;36982;51.474;7.228;2023-06-26T13:41:11;23.50;22.70
50969;DHT22;36982;51.474;7.228;2023-06-26T13:43:37;23.50;17.30
50969;DHT22;36982;51.474;7.228;2023-06-26T13:46:03;23.50;18.10
50969;DHT22;36982;51.474;7.228;2023-06-26T13:48:29;23.70;25.20
50969;DHT22;36982;51.474;7.228;2023-06-26T13:50:55;24.00;24.70
50969;DHT22;36982;51.474;7.228;2023-06-26T13:53:21;24.30;13.40
50969;DHT22;36982;51.474;7.228;2023-06-26T13:55:47;24.10;1.00
50969;DHT22;36982;51.474;7.228;2023-06-26T13:58:13;24.00;1.00
50969;DHT22;36982;51.474;7.228;2023-06-26T14:00:40;24.00;1.00
50969;DHT22;36982;51.474;7.228;2023-06-26T14:03:06;23.80;1.00
50969;DHT22;36982;51.474;7.228;2023-06-26T14:05:33;23.70;1.00
50969;DHT22;36982;51.474;7.228;2023-06-26T14:07:59;23.60;1.00
50969;DHT22;36982;51.474;7.228;2023-06-26T14:10:25;23.80;1.00
50969;DHT22;36982;51.474;7.228;2023-06-26T14:12:53;23.90;1.00
50969;DHT22;36982;51.474;7.228;2023-06-26T14:15:18;23.90;1.00
50969;DHT22;36982;51.474;7.228;2023-06-26T14:17:44;23.80;1.00
50969;DHT22;36982;51.474;7.228;2023-06-26T14:20:10;23.70;1.00
50969;DHT22;36982;51.474;7.228;2023-06-26T14:22:41;23.50;1.00
50969;DHT22;36982;51.474;7.228;2023-06-26T14:25:08;23.50;1.00
50969;DHT22;36982;51.474;7.228;2023-06-26T14:27:34;23.50;1.00
50969;DHT22;36982;51.474;7.228;2023-06-26T14:30:00;23.50;1.00
50969;DHT22;36982;51.474;7.228;2023-06-26T14:32:49;23.40;1.00
50969;DHT22;36982;51.474;7.228;2023-06-26T14:35:15;23.40;1.00
50969;DHT22;36982;51.474;7.228;2023-06-26T14:37:41;23.40;1.00
50969;DHT22;36982;51.474;7.228;2023-06-26T14:40:07;23.40;1.00
50969;DHT22;36982;51.474;7.228;2023-06-26T14:42:33;23.50;1.00
50969;DHT22;36982;51.474;7.228;2023-06-26T14:44:59;23.60;1.00
50969;DHT22;36982;51.474;7.228;2023-06-26T14:47:25;23.60;1.00
50969;DHT22;36982;51.474;7.228;2023-06-26T14:50:08;23.70;1.00
50969;DHT22;36982;51.474;7.228;2023-06-26T14:52:34;23.70;1.00
50969;DHT22;36982;51.474;7.228;2023-06-26T14:55:04;23.80;1.00
50969;DHT22;36982;51.474;7.228;2023-06-26T14:57:30;23.70;1.00
50969;DHT22;36982;51.474;7.228;2023-06-26T14:59:56;23.60;1.00
50969;DHT22;36982;51.474;7.228;2023-06-26T15:02:21;23.60;1.00
50969;DHT22;36982;51.474;7.228;2023-06-26T15:04:47;23.60;1.00
50969;DHT22;36982;51.474;7.228;2023-06-26T15:07:13;23.60;1.00
50969;DHT22;36982;51.474;7.228;2023-06-26T15:09:38;23.60;1.00
50969;DHT22;36982;51.474;7.228;2023-06-26T15:12:04;23.70;1.00
50969;DHT22;36982;51.474;7.228;2023-06-26T15:14:30;23.80;1.00
50969;DHT22;36982;51.474;7.228;2023-06-26T15:16:55;23.80;1.00
50969;DHT22;36982;51.474;7.228;2023-06-26T15:19:21;23.80;1.00
50969;DHT22;36982;51.474;7.228;2023-06-26T15:21:47;23.70;1.00
50969;DHT22;36982;51.474;7.228;2023-06-26T15:24:12;23.70;1.00
50969;DHT22;36982;51.474;7.228;2023-06-26T15:26:39;23.60;1.00
50969;DHT22;36982;51.474;7.228;2023-06-26T15:29:05;23.70;1.00
50969;DHT22;36982;51.474;7.228;2023-06-26T15:31:30;23.70;1.00
50969;DHT22;36982;51.474;7.228;2023-06-26T15:33:56;23.60;1.00
50969;DHT22;36982;51.474;7.228;2023-06-26T15:36:22;23.50;1.00
50969;DHT22;36982;51.474;7.228;2023-06-26T15:38:48;23.50;1.00
50969;DHT22;36982;51.474;7.228;2023-06-26T15:41:13;23.50;1.00
50969;DHT22;36982;51.474;7.228;2023-06-26T15:43:39;23.60;1.00
50969;DHT22;36982;51.474;7.228;2023-06-26T15:46:06;23.60;1.00